sensor_id;sensor_type;location;lat;lon;timestamp;P1;durP1;ratioP1;P2;durP2;ratioP2
53674;SDS011;39574;50.534;8.500;2023-04-25T00:04:38;16.7;;;10.1;;
53674;SDS011;39574;50.534;8.500;2023-04-25T00:09:37;15.5;;;9.5;;
53674;SDS011;39574;50.534;8.500;2023-04-25T00:14:36;15.5;;;9.0;;
53674;SDS011;39574;50.534;8.500;2023-04-25T00:19:35;15.5;;;8.6;;
53674;SDS011;39574;50.534;8.500;2023-04-25T00:24:34;14.7;;;8.1;;
53674;SDS011;39574;50.534;8.500;2023-04-25T00:29:33;13.8;;;7.3;;
53674;SDS011;39574;50.534;8.500;2023-04-25T00:34:32;12.0;;;6.5;;
53674;SDS011;39574;50.534;8.500;2023-04-25T00:39:31;11.2;;;5.7;;
53674;SDS011;39574;50.534;8.500;2023-04-25T00:44:30;10.3;;;5.0;;
53674;SDS011;39574;50.534;8.500;2023-04-25T00:49:29;10.3;;;4.7;;
53674;SDS011;39574;50.534;8.500;2023-04-25T00:54:28;10.1;;;4.5;;
53674;SDS011;39574;50.534;8.500;2023-04-25T00:59:27;10.1;;;4.5;;
53674;SDS011;39574;50.534;8.500;2023-04-25T01:04:26;11.7;;;5.0;;
53674;SDS011;39574;50.534;8.500;2023-04-25T01:09:25;11.5;;;5.2;;
53674;SDS011;39574;50.534;8.500;2023-04-25T01:14:24;11.8;;;5.4;;
53674;SDS011;39574;50.534;8.500;2023-04-25T01:19:23;11.4;;;5.5;;
53674;SDS011;39574;50.534;8.500;2023-04-25T01:24:22;11.3;;;5.3;;
53674;SDS011;39574;50.534;8.500;2023-04-25T01:29:20;10.4;;;5.2;;
53674;SDS011;39574;50.534;8.500;2023-04-25T01:34:20;10.0;;;5.0;;
53674;SDS011;39574;50.534;8.500;2023-04-25T01:39:19;10.0;;;4.6;;
53674;SDS011;39574;50.534;8.500;2023-04-25T01:44:17;11.3;;;4.6;;
53674;SDS011;39574;50.534;8.500;2023-04-25T01:49:17;11.7;;;4.7;;
53674;SDS011;39574;50.534;8.500;2023-04-25T01:54:15;10.7;;;4.6;;
53674;SDS011;39574;50.534;8.500;2023-04-25T01:59:14;10.2;;;4.5;;
53674;SDS011;39574;50.534;8.500;2023-04-25T02:04:13;10.3;;;4.5;;
53674;SDS011;39574;50.534;8.500;2023-04-25T02:09:12;10.5;;;4.6;;
53674;SDS011;39574;50.534;8.500;2023-04-25T02:14:11;10.2;;;4.7;;
53674;SDS011;39574;50.534;8.500;2023-04-25T02:19:10;12.1;;;5.1;;
53674;SDS011;39574;50.534;8.500;2023-04-25T02:24:08;13.1;;;5.4;;
53674;SDS011;39574;50.534;8.500;2023-04-25T02:29:07;14.0;;;5.7;;
53674;SDS011;39574;50.534;8.500;2023-04-25T02:34:06;13.9;;;6.1;;
53674;SDS011;39574;50.534;8.500;2023-04-25T02:39:05;13.3;;;5.9;;
53674;SDS011;39574;50.534;8.500;2023-04-25T02:44:04;14.0;;;5.7;;
53674;SDS011;39574;50.534;8.500;2023-04-25T02:49:03;14.7;;;5.7;;
53674;SDS011;39574;50.534;8.500;2023-04-25T02:54:02;14.2;;;5.4;;
53674;SDS011;39574;50.534;8.500;2023-04-25T02:59:01;13.1;;;5.0;;
53674;SDS011;39574;50.534;8.500;2023-04-25T03:04:00;12.0;;;5.0;;
53674;SDS011;39574;50.534;8.500;2023-04-25T03:08:58;11.4;;;4.7;;
53674;SDS011;39574;50.534;8.500;2023-04-25T03:13:57;11.3;;;4.7;;
53674;SDS011;39574;50.534;8.500;2023-04-25T03:18:56;12.2;;;4.9;;
53674;SDS011;39574;50.534;8.500;2023-04-25T03:23:55;12.5;;;5.0;;
53674;SDS011;39574;50.534;8.500;2023-04-25T03:28:54;13.0;;;5.0;;
53674;SDS011;39574;50.534;8.500;2023-04-25T03:33:53;15.2;;;5.2;;
53674;SDS011;39574;50.534;8.500;2023-04-25T03:38:52;14.2;;;5.3;;
53674;SDS011;39574;50.534;8.500;2023-04-25T03:43:51;14.1;;;5.5;;
53674;SDS011;39574;50.534;8.500;2023-04-25T03:48:49;13.3;;;5.5;;
53674;SDS011;39574;50.534;8.500;2023-04-25T03:53:49;13.7;;;6.0;;
53674;SDS011;39574;50.534;8.500;2023-04-25T03:58:47;13.7;;;5.7;;
53674;SDS011;39574;50.534;8.500;2023-04-25T04:03:46;13.3;;;5.4;;
53674;SDS011;39574;50.534;8.500;2023-04-25T04:08:45;11.8;;;5.0;;
53674;SDS011;39574;50.534;8.500;2023-04-25T04:13:43;11.5;;;4.8;;
53674;SDS011;39574;50.534;8.500;2023-04-25T04:18:42;10.8;;;4.5;;
53674;SDS011;39574;50.534;8.500;2023-04-25T04:23:41;11.0;;;4.6;;
53674;SDS011;39574;50.534;8.500;2023-04-25T04:28:40;10.9;;;4.7;;
53674;SDS011;39574;50.534;8.500;2023-04-25T04:33:39;10.1;;;4.4;;
53674;SDS011;39574;50.534;8.500;2023-04-25T04:38:38;9.0;;;4.3;;
53674;SDS011;39574;50.534;8.500;2023-04-25T04:43:36;8.1;;;4.1;;
53674;SDS011;39574;50.534;8.500;2023-04-25T04:48:35;9.3;;;4.3;;
53674;SDS011;39574;50.534;8.500;2023-04-25T04:53:34;9.3;;;4.4;;
53674;SDS011;39574;50.534;8.500;2023-04-25T04:58:33;9.8;;;4.4;;
53674;SDS011;39574;50.534;8.500;2023-04-25T05:03:32;9.6;;;4.5;;
53674;SDS011;39574;50.534;8.500;2023-04-25T05:08:31;10.9;;;5.3;;
53674;SDS011;39574;50.534;8.500;2023-04-25T05:13:30;14.0;;;7.3;;
53674;SDS011;39574;50.534;8.500;2023-04-25T05:18:28;15.9;;;9.1;;
53674;SDS011;39574;50.534;8.500;2023-04-25T05:23:27;15.4;;;8.1;;
53674;SDS011;39574;50.534;8.500;2023-04-25T05:28:26;13.5;;;6.9;;
53674;SDS011;39574;50.534;8.500;2023-04-25T05:33:25;12.2;;;5.5;;
53674;SDS011;39574;50.534;8.500;2023-04-25T05:38:24;10.9;;;5.0;;
53674;SDS011;39574;50.534;8.500;2023-04-25T05:43:23;10.9;;;4.7;;
53674;SDS011;39574;50.534;8.500;2023-04-25T05:48:23;10.1;;;4.5;;
53674;SDS011;39574;50.534;8.500;2023-04-25T05:53:20;9.4;;;4.6;;
53674;SDS011;39574;50.534;8.500;2023-04-25T05:58:19;10.2;;;4.4;;
53674;SDS011;39574;50.534;8.500;2023-04-25T06:13:16;9.8;;;4.5;;
53674;SDS011;39574;50.534;8.500;2023-04-25T06:18:15;9.4;;;4.5;;
53674;SDS011;39574;50.534;8.500;2023-04-25T06:23:13;9.0;;;4.4;;
53674;SDS011;39574;50.534;8.500;2023-04-25T06:33:11;10.2;;;4.7;;
53674;SDS011;39574;50.534;8.500;2023-04-25T06:38:10;10.9;;;4.9;;
53674;SDS011;39574;50.534;8.500;2023-04-25T06:43:09;11.6;;;5.2;;
53674;SDS011;39574;50.534;8.500;2023-04-25T06:48:08;12.2;;;5.2;;
53674;SDS011;39574;50.534;8.500;2023-04-25T06:53:07;11.1;;;5.2;;
53674;SDS011;39574;50.534;8.500;2023-04-25T07:03:05;11.2;;;5.5;;
53674;SDS011;39574;50.534;8.500;2023-04-25T07:08:03;11.4;;;5.5;;
53674;SDS011;39574;50.534;8.500;2023-04-25T07:13:02;10.7;;;5.4;;
53674;SDS011;39574;50.534;8.500;2023-04-25T07:18:01;12.0;;;5.6;;
53674;SDS011;39574;50.534;8.500;2023-04-25T07:23:00;12.5;;;5.9;;
53674;SDS011;39574;50.534;8.500;2023-04-25T07:27:59;13.3;;;6.1;;
53674;SDS011;39574;50.534;8.500;2023-04-25T07:33:00;12.8;;;6.1;;
53674;SDS011;39574;50.534;8.500;2023-04-25T07:37:57;11.8;;;6.0;;
53674;SDS011;39574;50.534;8.500;2023-04-25T07:42:55;11.1;;;6.1;;
53674;SDS011;39574;50.534;8.500;2023-04-25T07:47:54;10.4;;;6.0;;
53674;SDS011;39574;50.534;8.500;2023-04-25T08:02:51;9.8;;;5.9;;
53674;SDS011;39574;50.534;8.500;2023-04-25T08:12:49;9.2;;;5.8;;
53674;SDS011;39574;50.534;8.500;2023-04-25T08:17:48;9.5;;;5.5;;
53674;SDS011;39574;50.534;8.500;2023-04-25T08:22:47;10.4;;;5.6;;
53674;SDS011;39574;50.534;8.500;2023-04-25T08:32:46;10.9;;;5.5;;
53674;SDS011;39574;50.534;8.500;2023-04-25T08:37:44;10.6;;;5.3;;
53674;SDS011;39574;50.534;8.500;2023-04-25T08:42:43;10.2;;;5.2;;
53674;SDS011;39574;50.534;8.500;2023-04-25T08:52:43;8.9;;;4.6;;
53674;SDS011;39574;50.534;8.500;2023-04-25T08:57:40;7.3;;;3.9;;
53674;SDS011;39574;50.534;8.500;2023-04-25T09:02:39;7.0;;;3.5;;
53674;SDS011;39574;50.534;8.500;2023-04-25T09:07:38;7.3;;;3.4;;
53674;SDS011;39574;50.534;8.500;2023-04-25T09:12:37;6.7;;;3.3;;
53674;SDS011;39574;50.534;8.500;2023-04-25T09:17:35;7.5;;;3.5;;
53674;SDS011;39574;50.534;8.500;2023-04-25T09:22:35;10.6;;;4.4;;
53674;SDS011;39574;50.534;8.500;2023-04-25T09:27:34;11.5;;;5.3;;
53674;SDS011;39574;50.534;8.500;2023-04-25T09:32:32;11.0;;;4.6;;
53674;SDS011;39574;50.534;8.500;2023-04-25T09:37:33;10.8;;;4.3;;
53674;SDS011;39574;50.534;8.500;2023-04-25T09:42:30;9.7;;;3.8;;
53674;SDS011;39574;50.534;8.500;2023-04-25T09:47:29;10.4;;;3.5;;
53674;SDS011;39574;50.534;8.500;2023-04-25T09:52:29;12.9;;;4.6;;
53674;SDS011;39574;50.534;8.500;2023-04-25T09:57:27;11.1;;;4.0;;
53674;SDS011;39574;50.534;8.500;2023-04-25T10:02:27;10.8;;;3.6;;
53674;SDS011;39574;50.534;8.500;2023-04-25T10:07:26;10.7;;;3.7;;
53674;SDS011;39574;50.534;8.500;2023-04-25T10:12:24;10.1;;;3.3;;
53674;SDS011;39574;50.534;8.500;2023-04-25T10:17:23;10.0;;;3.3;;
53674;SDS011;39574;50.534;8.500;2023-04-25T10:22:23;9.3;;;3.2;;
53674;SDS011;39574;50.534;8.500;2023-04-25T10:27:21;7.9;;;2.8;;
53674;SDS011;39574;50.534;8.500;2023-04-25T10:32:20;7.6;;;2.7;;
53674;SDS011;39574;50.534;8.500;2023-04-25T10:37:19;8.0;;;2.7;;
53674;SDS011;39574;50.534;8.500;2023-04-25T10:42:18;7.9;;;2.8;;
53674;SDS011;39574;50.534;8.500;2023-04-25T10:47:18;9.2;;;3.6;;
53674;SDS011;39574;50.534;8.500;2023-04-25T10:52:18;9.4;;;3.5;;
53674;SDS011;39574;50.534;8.500;2023-04-25T10:57:33;9.3;;;3.4;;
53674;SDS011;39574;50.534;8.500;2023-04-25T11:02:15;8.8;;;3.3;;
53674;SDS011;39574;50.534;8.500;2023-04-25T11:07:16;7.9;;;3.1;;
53674;SDS011;39574;50.534;8.500;2023-04-25T11:12:13;7.6;;;3.0;;
53674;SDS011;39574;50.534;8.500;2023-04-25T11:17:12;7.8;;;3.1;;
53674;SDS011;39574;50.534;8.500;2023-04-25T11:22:11;7.0;;;3.0;;
53674;SDS011;39574;50.534;8.500;2023-04-25T11:27:10;7.0;;;2.8;;
53674;SDS011;39574;50.534;8.500;2023-04-25T11:37:12;7.5;;;3.0;;
53674;SDS011;39574;50.534;8.500;2023-04-25T11:42:07;8.4;;;3.3;;
53674;SDS011;39574;50.534;8.500;2023-04-25T11:47:06;9.6;;;3.4;;
53674;SDS011;39574;50.534;8.500;2023-04-25T11:52:06;9.6;;;3.4;;
53674;SDS011;39574;50.534;8.500;2023-04-25T11:57:04;8.6;;;3.3;;
53674;SDS011;39574;50.534;8.500;2023-04-25T12:02:03;8.2;;;3.1;;
53674;SDS011;39574;50.534;8.500;2023-04-25T12:07:02;8.3;;;3.1;;
53674;SDS011;39574;50.534;8.500;2023-04-25T12:12:01;8.1;;;3.3;;
53674;SDS011;39574;50.534;8.500;2023-04-25T12:17:00;7.9;;;3.4;;
53674;SDS011;39574;50.534;8.500;2023-04-25T12:21:59;8.2;;;3.4;;
53674;SDS011;39574;50.534;8.500;2023-04-25T12:27:00;8.2;;;3.3;;
53674;SDS011;39574;50.534;8.500;2023-04-25T12:31:57;8.6;;;3.0;;
53674;SDS011;39574;50.534;8.500;2023-04-25T12:36:56;8.2;;;2.8;;
53674;SDS011;39574;50.534;8.500;2023-04-25T12:41:55;7.4;;;2.6;;
53674;SDS011;39574;50.534;8.500;2023-04-25T12:46:54;6.9;;;2.4;;
53674;SDS011;39574;50.534;8.500;2023-04-25T12:51:53;6.8;;;2.5;;
53674;SDS011;39574;50.534;8.500;2023-04-25T12:56:53;6.4;;;2.4;;
53674;SDS011;39574;50.534;8.500;2023-04-25T13:01:51;6.8;;;2.5;;
53674;SDS011;39574;50.534;8.500;2023-04-25T13:06:51;6.7;;;2.5;;
53674;SDS011;39574;50.534;8.500;2023-04-25T13:11:50;7.8;;;3.0;;
53674;SDS011;39574;50.534;8.500;2023-04-25T13:16:49;7.9;;;3.0;;
53674;SDS011;39574;50.534;8.500;2023-04-25T13:21:49;7.0;;;2.7;;
53674;SDS011;39574;50.534;8.500;2023-04-25T13:36:45;7.7;;;2.7;;
53674;SDS011;39574;50.534;8.500;2023-04-25T13:46:43;7.5;;;2.6;;
53674;SDS011;39574;50.534;8.500;2023-04-25T13:51:42;8.8;;;3.0;;
53674;SDS011;39574;50.534;8.500;2023-04-25T13:56:41;8.6;;;2.8;;
53674;SDS011;39574;50.534;8.500;2023-04-25T14:01:40;7.6;;;2.6;;
53674;SDS011;39574;50.534;8.500;2023-04-25T14:11:38;7.1;;;2.8;;
53674;SDS011;39574;50.534;8.500;2023-04-25T14:16:37;7.1;;;2.5;;
53674;SDS011;39574;50.534;8.500;2023-04-25T14:21:36;7.2;;;2.5;;
53674;SDS011;39574;50.534;8.500;2023-04-25T14:26:35;7.6;;;2.7;;
53674;SDS011;39574;50.534;8.500;2023-04-25T14:31:34;6.8;;;2.4;;
53674;SDS011;39574;50.534;8.500;2023-04-25T14:36:33;7.9;;;2.8;;
53674;SDS011;39574;50.534;8.500;2023-04-25T14:41:32;10.0;;;4.4;;
53674;SDS011;39574;50.534;8.500;2023-04-25T14:51:30;9.2;;;4.4;;
53674;SDS011;39574;50.534;8.500;2023-04-25T14:56:29;8.4;;;3.5;;
53674;SDS011;39574;50.534;8.500;2023-04-25T15:01:28;7.1;;;2.9;;
53674;SDS011;39574;50.534;8.500;2023-04-25T15:06:27;6.4;;;2.4;;
53674;SDS011;39574;50.534;8.500;2023-04-25T15:11:26;6.7;;;2.5;;
53674;SDS011;39574;50.534;8.500;2023-04-25T15:16:25;6.8;;;3.0;;
53674;SDS011;39574;50.534;8.500;2023-04-25T15:26:27;6.6;;;2.6;;
53674;SDS011;39574;50.534;8.500;2023-04-25T15:36:21;6.6;;;2.4;;
53674;SDS011;39574;50.534;8.500;2023-04-25T15:41:20;6.3;;;2.2;;
53674;SDS011;39574;50.534;8.500;2023-04-25T15:46:19;5.9;;;1.9;;
53674;SDS011;39574;50.534;8.500;2023-04-25T15:51:18;5.6;;;2.2;;
53674;SDS011;39574;50.534;8.500;2023-04-25T15:56:18;5.8;;;2.0;;
53674;SDS011;39574;50.534;8.500;2023-04-25T16:01:16;6.4;;;2.3;;
53674;SDS011;39574;50.534;8.500;2023-04-25T16:06:15;6.2;;;2.3;;
53674;SDS011;39574;50.534;8.500;2023-04-25T16:11:14;6.1;;;2.1;;
53674;SDS011;39574;50.534;8.500;2023-04-25T16:16:14;6.4;;;2.0;;
53674;SDS011;39574;50.534;8.500;2023-04-25T16:21:13;5.8;;;1.9;;
53674;SDS011;39574;50.534;8.500;2023-04-25T16:26:12;6.1;;;1.9;;
53674;SDS011;39574;50.534;8.500;2023-04-25T16:31:11;6.0;;;1.9;;
53674;SDS011;39574;50.534;8.500;2023-04-25T16:36:10;5.5;;;2.0;;
53674;SDS011;39574;50.534;8.500;2023-04-25T16:41:09;4.8;;;2.0;;
53674;SDS011;39574;50.534;8.500;2023-04-25T16:46:08;4.4;;;1.9;;
53674;SDS011;39574;50.534;8.500;2023-04-25T16:51:07;4.6;;;1.9;;
53674;SDS011;39574;50.534;8.500;2023-04-25T16:56:06;3.5;;;1.5;;
53674;SDS011;39574;50.534;8.500;2023-04-25T17:01:05;3.4;;;1.5;;
53674;SDS011;39574;50.534;8.500;2023-04-25T17:06:04;3.5;;;1.5;;
53674;SDS011;39574;50.534;8.500;2023-04-25T17:11:04;4.2;;;1.5;;
53674;SDS011;39574;50.534;8.500;2023-04-25T17:16:03;4.7;;;1.5;;
53674;SDS011;39574;50.534;8.500;2023-04-25T17:21:02;4.9;;;1.5;;
53674;SDS011;39574;50.534;8.500;2023-04-25T17:26:01;5.8;;;1.6;;
53674;SDS011;39574;50.534;8.500;2023-04-25T17:31:00;6.5;;;1.8;;
53674;SDS011;39574;50.534;8.500;2023-04-25T17:35:59;5.6;;;1.8;;
53674;SDS011;39574;50.534;8.500;2023-04-25T17:40:58;4.7;;;1.6;;
53674;SDS011;39574;50.534;8.500;2023-04-25T17:45:57;4.9;;;1.7;;
53674;SDS011;39574;50.534;8.500;2023-04-25T17:50:56;4.3;;;1.7;;
53674;SDS011;39574;50.534;8.500;2023-04-25T17:55:55;802.6;;;401.0;;
53674;SDS011;39574;50.534;8.500;2023-04-25T18:00:54;603.7;;;301.9;;
53674;SDS011;39574;50.534;8.500;2023-04-25T18:05:53;404.5;;;201.9;;
53674;SDS011;39574;50.534;8.500;2023-04-25T18:10:52;204.1;;;101.8;;
53674;SDS011;39574;50.534;8.500;2023-04-25T18:15:51;4.4;;;1.9;;
53674;SDS011;39574;50.534;8.500;2023-04-25T18:20:50;4.1;;;1.6;;
53674;SDS011;39574;50.534;8.500;2023-04-25T18:25:49;4.4;;;1.6;;
53674;SDS011;39574;50.534;8.500;2023-04-25T18:30:48;4.3;;;1.8;;
53674;SDS011;39574;50.534;8.500;2023-04-25T18:35:46;4.0;;;1.7;;
53674;SDS011;39574;50.534;8.500;2023-04-25T18:40:45;4.0;;;1.6;;
53674;SDS011;39574;50.534;8.500;2023-04-25T18:45:45;5.4;;;2.1;;
53674;SDS011;39574;50.534;8.500;2023-04-25T18:50:43;5.2;;;2.1;;
53674;SDS011;39574;50.534;8.500;2023-04-25T18:55:42;5.3;;;2.0;;
53674;SDS011;39574;50.534;8.500;2023-04-25T19:00:41;6.6;;;2.6;;
53674;SDS011;39574;50.534;8.500;2023-04-25T19:05:40;6.2;;;2.5;;
53674;SDS011;39574;50.534;8.500;2023-04-25T19:10:39;6.1;;;2.6;;
53674;SDS011;39574;50.534;8.500;2023-04-25T19:15:38;7.3;;;3.2;;
53674;SDS011;39574;50.534;8.500;2023-04-25T19:20:37;7.9;;;3.9;;
53674;SDS011;39574;50.534;8.500;2023-04-25T19:25:36;8.6;;;4.8;;
53674;SDS011;39574;50.534;8.500;2023-04-25T19:30:34;9.1;;;5.2;;
53674;SDS011;39574;50.534;8.500;2023-04-25T19:35:33;10.2;;;6.2;;
53674;SDS011;39574;50.534;8.500;2023-04-25T19:40:32;8.4;;;5.0;;
53674;SDS011;39574;50.534;8.500;2023-04-25T19:45:32;10.6;;;6.0;;
53674;SDS011;39574;50.534;8.500;2023-04-25T19:50:30;9.4;;;5.3;;
53674;SDS011;39574;50.534;8.500;2023-04-25T19:55:29;8.1;;;3.9;;
53674;SDS011;39574;50.534;8.500;2023-04-25T20:00:28;7.4;;;3.3;;
53674;SDS011;39574;50.534;8.500;2023-04-25T20:05:27;6.3;;;2.8;;
53674;SDS011;39574;50.534;8.500;2023-04-25T20:10:26;6.9;;;3.6;;
53674;SDS011;39574;50.534;8.500;2023-04-25T20:15:25;7.8;;;4.4;;
53674;SDS011;39574;50.534;8.500;2023-04-25T20:20:23;10.3;;;6.4;;
53674;SDS011;39574;50.534;8.500;2023-04-25T20:25:22;10.5;;;6.5;;
53674;SDS011;39574;50.534;8.500;2023-04-25T20:30:21;10.1;;;5.8;;
53674;SDS011;39574;50.534;8.500;2023-04-25T20:35:20;8.2;;;4.5;;
53674;SDS011;39574;50.534;8.500;2023-04-25T20:45:18;8.4;;;4.1;;
53674;SDS011;39574;50.534;8.500;2023-04-25T20:50:17;10.8;;;5.7;;
53674;SDS011;39574;50.534;8.500;2023-04-25T20:55:16;11.4;;;6.4;;
53674;SDS011;39574;50.534;8.500;2023-04-25T21:00:15;12.4;;;7.3;;
53674;SDS011;39574;50.534;8.500;2023-04-25T21:05:14;10.2;;;6.1;;
53674;SDS011;39574;50.534;8.500;2023-04-25T21:10:13;12.1;;;6.9;;
53674;SDS011;39574;50.534;8.500;2023-04-25T21:15:12;12.1;;;6.5;;
53674;SDS011;39574;50.534;8.500;2023-04-25T21:20:10;11.2;;;6.0;;
53674;SDS011;39574;50.534;8.500;2023-04-25T21:25:09;14.9;;;7.7;;
53674;SDS011;39574;50.534;8.500;2023-04-25T21:30:08;15.3;;;7.9;;
53674;SDS011;39574;50.534;8.500;2023-04-25T21:35:07;14.3;;;7.7;;
53674;SDS011;39574;50.534;8.500;2023-04-25T21:40:06;11.2;;;6.1;;
53674;SDS011;39574;50.534;8.500;2023-04-25T21:45:05;9.1;;;4.6;;
53674;SDS011;39574;50.534;8.500;2023-04-25T21:50:04;9.7;;;4.8;;
53674;SDS011;39574;50.534;8.500;2023-04-25T21:55:02;10.3;;;5.1;;
53674;SDS011;39574;50.534;8.500;2023-04-25T22:00:04;11.2;;;5.6;;
53674;SDS011;39574;50.534;8.500;2023-04-25T22:05:00;10.4;;;5.3;;
53674;SDS011;39574;50.534;8.500;2023-04-25T22:09:58;8.9;;;4.4;;
53674;SDS011;39574;50.534;8.500;2023-04-25T22:14:57;7.4;;;3.8;;
53674;SDS011;39574;50.534;8.500;2023-04-25T22:19:56;6.4;;;3.4;;
53674;SDS011;39574;50.534;8.500;2023-04-25T22:24:55;6.2;;;3.3;;
53674;SDS011;39574;50.534;8.500;2023-04-25T22:29:53;6.1;;;3.6;;
53674;SDS011;39574;50.534;8.500;2023-04-25T22:34:52;6.0;;;3.4;;
53674;SDS011;39574;50.534;8.500;2023-04-25T22:39:51;5.8;;;3.3;;
53674;SDS011;39574;50.534;8.500;2023-04-25T22:44:50;6.3;;;3.0;;
53674;SDS011;39574;50.534;8.500;2023-04-25T22:49:49;6.8;;;3.1;;
53674;SDS011;39574;50.534;8.500;2023-04-25T22:54:47;7.5;;;3.6;;
53674;SDS011;39574;50.534;8.500;2023-04-25T22:59:46;11.8;;;6.1;;
53674;SDS011;39574;50.534;8.500;2023-04-25T23:04:45;10.0;;;5.2;;
53674;SDS011;39574;50.534;8.500;2023-04-25T23:09:43;8.5;;;4.3;;
53674;SDS011;39574;50.534;8.500;2023-04-25T23:14:42;7.2;;;3.5;;
53674;SDS011;39574;50.534;8.500;2023-04-25T23:19:41;6.2;;;2.8;;
53674;SDS011;39574;50.534;8.500;2023-04-25T23:24:39;8.8;;;4.0;;
53674;SDS011;39574;50.534;8.500;2023-04-25T23:29:38;8.1;;;4.1;;
53674;SDS011;39574;50.534;8.500;2023-04-25T23:34:37;8.3;;;4.1;;
53674;SDS011;39574;50.534;8.500;2023-04-25T23:39:36;9.2;;;4.9;;
53674;SDS011;39574;50.534;8.500;2023-04-25T23:44:35;8.7;;;4.6;;
53674;SDS011;39574;50.534;8.500;2023-04-25T23:49:33;7.5;;;4.3;;
53674;SDS011;39574;50.534;8.500;2023-04-25T23:54:32;7.0;;;3.8;;
53674;SDS011;39574;50.534;8.500;2023-04-25T23:59:30;6.4;;;3.7;;
